createdAt,value
2022-11-15T00:00:11.256Z,6.44
2022-11-15T00:05:36.190Z,6.44
2022-11-15T00:11:01.396Z,6.44
2022-11-15T00:16:22.518Z,6.45
2022-11-15T00:21:43.231Z,6.41
2022-11-15T00:27:07.870Z,6.31
2022-11-15T00:32:33.708Z,6.26
2022-11-15T00:37:54.099Z,6.21
2022-11-15T00:43:14.347Z,6.20
2022-11-15T00:48:35.224Z,6.14
2022-11-15T00:53:55.740Z,6.12
2022-11-15T00:59:16.660Z,6.09
2022-11-15T01:04:37.180Z,6.06
2022-11-15T01:09:57.361Z,6.08
2022-11-15T01:15:17.726Z,6.09
2022-11-15T01:20:44.617Z,6.07
2022-11-15T01:26:07.116Z,6.07
2022-11-15T01:31:27.741Z,6.08
2022-11-15T01:36:48.455Z,6.07
2022-11-15T01:42:14.511Z,6.04
2022-11-15T01:47:52.523Z,6.00
2022-11-15T01:53:13.709Z,5.96
2022-11-15T01:58:35.188Z,5.89
2022-11-15T02:04:00.823Z,5.81
2022-11-15T02:09:21.694Z,5.77
2022-11-15T02:14:45.544Z,5.73
2022-11-15T02:20:41.674Z,5.72
2022-11-15T02:26:30.364Z,5.70
2022-11-15T02:32:02.969Z,5.72
2022-11-15T02:37:43.750Z,5.73
2022-11-15T02:43:32.326Z,5.75
2022-11-15T02:48:53.550Z,5.76
2022-11-15T02:54:19.186Z,5.76
2022-11-15T03:00:04.892Z,5.74
2022-11-15T03:05:47.735Z,5.63
2022-11-15T03:11:10.189Z,5.52
2022-11-15T03:16:54.457Z,5.46
2022-11-15T03:22:25.622Z,5.46
2022-11-15T03:27:51.815Z,5.49
2022-11-15T03:33:12.798Z,5.47
2022-11-15T03:38:36.258Z,5.44
2022-11-15T03:44:12.267Z,5.44
2022-11-15T03:49:36.152Z,5.47
2022-11-15T03:54:58.184Z,5.46
2022-11-15T04:00:18.824Z,5.37
2022-11-15T04:05:39.228Z,5.23
2022-11-15T04:11:02.264Z,5.11
2022-11-15T04:16:23.220Z,5.00
2022-11-15T04:22:02.583Z,4.92
2022-11-15T04:27:23.187Z,4.84
2022-11-15T04:32:43.509Z,4.74
2022-11-15T04:38:06.275Z,4.55
2022-11-15T04:43:26.687Z,4.44
2022-11-15T04:48:47.538Z,4.48
2022-11-15T04:54:08.128Z,4.54
2022-11-15T04:59:28.739Z,4.55
2022-11-15T05:04:49.769Z,4.54
2022-11-15T05:10:10.769Z,4.53
2022-11-15T05:15:31.404Z,4.53
2022-11-15T05:20:51.558Z,4.52
2022-11-15T05:26:12.762Z,4.50
2022-11-15T05:31:33.259Z,4.45
2022-11-15T05:36:54.741Z,4.42
2022-11-15T05:42:16.850Z,4.38
2022-11-15T05:47:39.515Z,4.35
2022-11-15T05:53:05.177Z,4.31
2022-11-15T05:58:26.363Z,4.27
2022-11-15T06:03:46.690Z,4.26
2022-11-15T06:09:07.202Z,4.27
2022-11-15T06:14:37.371Z,4.17
2022-11-15T06:19:57.654Z,4.12
2022-11-15T06:25:18.164Z,4.10
2022-11-15T06:30:38.575Z,3.89
2022-11-15T06:36:08.622Z,3.75
2022-11-15T06:41:39.675Z,3.82
2022-11-15T06:47:00.396Z,3.99
2022-11-15T06:52:20.904Z,4.09
2022-11-15T06:57:52.174Z,4.20
2022-11-15T07:03:12.382Z,4.41
2022-11-15T07:08:33.310Z,4.56
2022-11-15T07:13:54.064Z,4.68
2022-11-15T07:19:14.539Z,5.02
2022-11-15T07:24:34.954Z,5.42
2022-11-15T07:29:55.609Z,5.77
2022-11-15T07:35:16.184Z,6.07
2022-11-15T07:40:36.902Z,6.33
2022-11-15T07:45:59.287Z,6.57
2022-11-15T07:51:21.214Z,6.88
2022-11-15T07:56:42.647Z,7.16
2022-11-15T08:02:03.671Z,7.39
2022-11-15T08:07:24.672Z,7.32
2022-11-15T08:12:45.355Z,7.30
2022-11-15T08:18:12.831Z,7.46
2022-11-15T08:23:33.683Z,7.78
2022-11-15T08:28:54.343Z,8.17
2022-11-15T08:34:14.766Z,8.59
2022-11-15T08:39:35.156Z,8.99
2022-11-15T08:44:56.139Z,9.39
2022-11-15T08:50:17.003Z,9.77
2022-11-15T08:55:39.097Z,10.12
2022-11-15T09:00:59.827Z,10.44
2022-11-15T09:06:20.291Z,10.74
2022-11-15T09:11:41.316Z,11.09
2022-11-15T09:17:02.539Z,11.46
2022-11-15T09:22:23.418Z,11.91
2022-11-15T09:27:53.814Z,12.49
2022-11-15T09:33:14.531Z,13.12
2022-11-15T09:38:35.986Z,13.74
2022-11-15T09:44:05.355Z,14.25
2022-11-15T09:49:44.574Z,14.75
2022-11-15T09:54:55.499Z,15.26
2022-11-15T10:00:47.599Z,15.79
2022-11-15T10:05:49.774Z,16.17
2022-11-15T10:11:22.733Z,16.19
2022-11-15T10:16:29.676Z,15.79
2022-11-15T10:22:05.756Z,15.40
2022-11-15T10:27:14.352Z,15.00
2022-11-15T10:32:21.799Z,14.84
2022-11-15T10:37:31.734Z,14.58
2022-11-15T10:42:33.642Z,14.29
2022-11-15T10:47:39.562Z,14.11
2022-11-15T10:52:47.858Z,14.02
2022-11-15T10:57:53.611Z,13.96
2022-11-15T11:03:08.340Z,13.83
2022-11-15T11:08:12.928Z,13.83
2022-11-15T11:13:16.864Z,13.82
2022-11-15T11:18:43.813Z,13.69
2022-11-15T11:23:59.648Z,13.61
2022-11-15T11:29:25.235Z,13.75
2022-11-15T11:34:39.062Z,14.12
2022-11-15T11:39:48.468Z,14.70
2022-11-15T11:44:59.562Z,15.34
2022-11-15T11:50:11.903Z,15.94
2022-11-15T11:55:19.080Z,16.41
2022-11-15T12:00:30.388Z,16.76
2022-11-15T12:06:30.833Z,17.03
2022-11-15T12:12:10.366Z,17.32
2022-11-15T12:17:13.395Z,17.19
2022-11-15T12:22:24.083Z,17.02
2022-11-15T12:27:48.136Z,16.75
2022-11-15T12:33:00.141Z,16.38
2022-11-15T12:38:02.681Z,15.97
2022-11-15T12:43:16.749Z,15.60
2022-11-15T12:48:18.638Z,15.37
2022-11-15T12:53:26.364Z,15.34
2022-11-15T12:58:40.405Z,15.33
2022-11-15T13:04:19.985Z,15.37
2022-11-15T13:09:31.059Z,15.33
2022-11-15T13:14:40.539Z,15.28
2022-11-15T13:19:42.384Z,15.24
2022-11-15T13:24:44.265Z,15.11
2022-11-15T13:29:46.070Z,14.95
2022-11-15T13:34:51.940Z,14.83
2022-11-15T13:39:54.611Z,14.74
2022-11-15T13:44:59.204Z,14.68
2022-11-15T13:50:09.633Z,14.57
2022-11-15T13:55:20.766Z,14.43
2022-11-15T14:00:48.917Z,14.33
2022-11-15T14:06:16.097Z,14.23
2022-11-15T14:11:20.933Z,14.17
2022-11-15T14:16:43.778Z,14.05
2022-11-15T14:22:16.207Z,13.96
2022-11-15T14:27:27.083Z,13.89
2022-11-15T14:32:31.565Z,13.61
2022-11-15T14:37:38.520Z,13.31
2022-11-15T14:42:40.398Z,13.07
2022-11-15T14:47:42.792Z,13.01
2022-11-15T14:52:45.121Z,12.96
2022-11-15T14:57:47.569Z,12.84
2022-11-15T15:02:51.523Z,12.68
2022-11-15T15:07:54.476Z,12.62
2022-11-15T15:12:56.472Z,12.48
2022-11-15T15:17:58.276Z,12.36
2022-11-15T15:23:00.158Z,12.29
2022-11-15T15:28:03.234Z,12.23
2022-11-15T15:33:05.105Z,12.16
2022-11-15T15:38:07.086Z,12.02
2022-11-15T15:43:10.316Z,11.91
2022-11-15T15:48:14.552Z,11.75
2022-11-15T15:53:16.917Z,11.60
2022-11-15T15:58:18.689Z,11.40
2022-11-15T16:03:20.506Z,11.15
2022-11-15T16:08:25.029Z,11.11
2022-11-15T16:13:26.986Z,11.14
2022-11-15T16:18:35.679Z,11.18
2022-11-15T16:23:38.056Z,11.26
2022-11-15T16:28:39.812Z,11.30
2022-11-15T16:33:41.573Z,11.37
2022-11-15T16:38:43.375Z,11.45
2022-11-15T16:43:46.926Z,11.52
2022-11-15T16:48:49.462Z,11.62
2022-11-15T16:53:51.528Z,11.71
2022-11-15T16:59:00.627Z,11.78
2022-11-15T17:04:16.578Z,11.83
2022-11-15T17:09:24.724Z,11.88
2022-11-15T17:14:26.683Z,11.93
2022-11-15T17:19:28.564Z,11.98
2022-11-15T17:24:30.439Z,12.03
2022-11-15T17:29:32.319Z,12.08
2022-11-15T17:34:34.194Z,12.16
2022-11-15T17:39:35.999Z,12.22
2022-11-15T17:44:37.949Z,12.26
2022-11-15T17:49:40.952Z,12.29
2022-11-15T17:54:42.828Z,12.33
2022-11-15T17:59:44.588Z,12.36
2022-11-15T18:04:46.481Z,12.37
2022-11-15T18:09:48.260Z,12.37
2022-11-15T18:14:50.077Z,12.37
2022-11-15T18:19:51.910Z,12.32
2022-11-15T18:24:53.781Z,12.31
2022-11-15T18:29:55.626Z,12.37
2022-11-15T18:34:57.395Z,12.44
2022-11-15T18:39:59.211Z,12.49
2022-11-15T18:45:02.014Z,12.49
2022-11-15T18:50:04.019Z,12.48
2022-11-15T18:55:05.899Z,12.53
2022-11-15T19:00:09.231Z,12.60
2022-11-15T19:05:11.004Z,12.64
2022-11-15T19:10:12.968Z,12.69
2022-11-15T19:15:14.921Z,12.76
2022-11-15T19:20:16.786Z,12.84
2022-11-15T19:25:19.031Z,12.93
2022-11-15T19:30:20.930Z,12.98
2022-11-15T19:35:22.784Z,12.99
2022-11-15T19:40:24.620Z,12.99
2022-11-15T19:45:26.441Z,12.97
2022-11-15T19:50:28.240Z,12.98
2022-11-15T19:55:30.184Z,12.96
2022-11-15T20:00:32.117Z,12.93
2022-11-15T20:05:33.946Z,12.91
2022-11-15T20:10:35.972Z,12.87
2022-11-15T20:15:37.796Z,12.84
2022-11-15T20:20:40.175Z,12.82
2022-11-15T20:25:47.067Z,12.80
2022-11-15T20:30:52.729Z,12.78
2022-11-15T20:35:54.881Z,12.74
2022-11-15T20:41:00.130Z,12.68
2022-11-15T20:46:02.619Z,12.61
2022-11-15T20:51:16.262Z,12.49
2022-11-15T20:56:20.198Z,12.40
2022-11-15T21:01:24.611Z,12.39
2022-11-15T21:06:27.651Z,12.37
2022-11-15T21:11:48.320Z,12.39
2022-11-15T21:16:50.607Z,12.42
2022-11-15T21:21:52.468Z,12.45
2022-11-15T21:26:54.773Z,12.48
2022-11-15T21:31:56.778Z,12.49
2022-11-15T21:36:59.039Z,12.48
2022-11-15T21:42:00.899Z,12.47
2022-11-15T21:52:28.027Z,12.43
2022-11-15T21:57:30.340Z,12.40
2022-11-15T22:02:32.239Z,12.35
2022-11-15T22:07:34.100Z,12.31
2022-11-15T22:12:40.605Z,12.30
2022-11-15T22:18:00.680Z,12.28
2022-11-15T22:23:02.913Z,12.24
2022-11-15T22:28:04.917Z,12.19
2022-11-15T22:33:07.015Z,12.12
2022-11-15T22:38:09.570Z,12.05
2022-11-15T22:43:13.573Z,11.99
2022-11-15T22:48:16.605Z,11.97
2022-11-15T22:53:19.421Z,11.96
2022-11-15T22:58:23.629Z,11.95
2022-11-15T23:03:27.103Z,11.91
2022-11-15T23:08:29.098Z,11.91
2022-11-15T23:13:33.052Z,11.91
2022-11-15T23:18:40.992Z,11.90
2022-11-15T23:23:42.878Z,11.82
2022-11-15T23:28:44.755Z,11.74
2022-11-15T23:33:58.890Z,11.67
2022-11-15T23:39:02.225Z,11.59
2022-11-15T23:44:04.665Z,11.55
2022-11-15T23:49:06.674Z,11.56
2022-11-15T23:54:09.140Z,11.56
2022-11-15T23:59:11.102Z,11.55
